Bookmark and Share
Track history (hours):
 

Almak

Last reported at 2014-Apr-16 12:26 UTC. Time now 2014-Apr-17 18:28 UTC.
Position N 69°42' E 019°02'.

Length 41 m; draft 6 m.

Type: Fishing. MMSI: 273317270.

NotesDate/timePositionNaut miles runAvg speedWind from/ knotsBaromVisibWave heightAir tempDewpointWater temp
2014-Apr-16 12:26N 69°42' E 019°02'2 2.3
2014-Apr-16 11:33N 69°40' E 018°58'0 0.0
2014-Apr-16 10:33N 69°40' E 018°58'0 0.0
2014-Apr-16 09:34N 69°40' E 018°58'0 0.0
2014-Apr-16 08:34N 69°40' E 018°58'0 0.0
2014-Apr-16 07:33N 69°40' E 018°58'0 0.0
2014-Apr-16 06:34N 69°40' E 018°58'0 0.0
2014-Apr-16 05:34N 69°40' E 018°58'0 0.0
2014-Apr-16 04:34N 69°40' E 018°58'0 0.0
2014-Apr-16 03:33N 69°40' E 018°58'0 0.0
2014-Apr-16 02:33N 69°40' E 018°58'0 0.0
2014-Apr-16 01:34N 69°40' E 018°58'0 0.0
2014-Apr-16 00:34N 69°40' E 018°58'0 0.0
2014-Apr-15 23:33N 69°40' E 018°58'0 0.0
2014-Apr-15 22:33N 69°40' E 018°58'0 0.0
2014-Apr-15 21:33N 69°40' E 018°58'0 0.0
2014-Apr-15 20:34N 69°40' E 018°58'0 0.0
2014-Apr-15 19:34N 69°40' E 018°58'0 0.0
2014-Apr-15 18:34N 69°40' E 018°58'0 0.0
2014-Apr-15 17:34N 69°40' E 018°58'1 0.7
2014-Apr-15 16:33N 69°39' E 018°58'0 0.0
2014-Apr-15 15:34N 69°39' E 018°58'0 0.1
2014-Apr-15 14:34N 69°39' E 018°58'0 0.1
2014-Apr-15 12:34N 69°39' E 018°58'0 0.0
2014-Apr-15 11:34N 69°39' E 018°58'0 0.0
2014-Apr-15 10:34N 69°39' E 018°58'0 0.0
2014-Apr-15 09:32N 69°39' E 018°58'0 0.0
2014-Apr-15 08:34N 69°39' E 018°58'0 0.0
2014-Apr-15 07:34N 69°39' E 018°58'0 0.0
2014-Apr-15 06:34N 69°39' E 018°58'0 0.0
2014-Apr-15 05:34N 69°39' E 018°58'6 2.8
2014-Apr-15 03:34N 69°45' E 019°04'  
2014-Apr-10 21:33N 69°35' E 015°55'4 0.8
2014-Apr-10 17:04N 69°37' E 016°04'3 4.1
2014-Apr-10 16:27N 69°34' E 016°04'41 1.1
2014-Apr-09 03:06N 69°09' E 014°31'3 3.4
2014-Apr-09 02:12N 69°11' E 014°37'2 1.1
2014-Apr-09 00:22N 69°10' E 014°32'1 0.6
2014-Apr-08 22:27N 69°11' E 014°34'  

Dump ship's entire track history

sailing weather and tide predictions

Almak — UCEL — position and weather